createdAt,value
2023-01-29T00:00:10.411Z,19.92
2023-01-29T00:02:42.605Z,18.05
2023-01-29T00:05:26.485Z,16.70
2023-01-29T00:07:56.214Z,15.93
2023-01-29T00:10:27.327Z,14.27
2023-01-29T00:12:55.351Z,15.80
2023-01-29T00:15:23.375Z,10.35
2023-01-29T00:17:52.783Z,11.02
2023-01-29T00:20:20.959Z,15.05
2023-01-29T00:22:48.886Z,11.63
2023-01-29T00:25:16.979Z,12.10
2023-01-29T00:27:44.890Z,14.20
2023-01-29T00:30:14.533Z,13.38
2023-01-29T00:32:42.993Z,9.75
2023-01-29T00:35:13.234Z,9.48
2023-01-29T00:37:41.462Z,9.32
2023-01-29T00:40:11.608Z,8.10
2023-01-29T00:42:56.780Z,9.20
2023-01-29T00:45:24.991Z,10.00
2023-01-29T00:47:52.866Z,8.23
2023-01-29T00:50:22.213Z,9.82
2023-01-29T00:52:51.861Z,9.20
2023-01-29T00:55:20.113Z,9.68
2023-01-29T00:57:48.342Z,9.77
2023-01-29T01:00:19.900Z,10.25
2023-01-29T01:03:05.101Z,8.80
2023-01-29T01:05:36.742Z,7.40
2023-01-29T01:08:25.097Z,10.55
2023-01-29T01:11:01.043Z,13.27
2023-01-29T01:13:29.380Z,11.60
2023-01-29T01:15:58.703Z,13.88
2023-01-29T01:18:26.967Z,13.27
2023-01-29T01:20:59.842Z,12.65
2023-01-29T01:23:28.211Z,8.18
2023-01-29T01:25:56.164Z,7.63
2023-01-29T01:28:24.489Z,6.75
2023-01-29T01:30:52.783Z,10.18
2023-01-29T01:33:20.715Z,12.02
2023-01-29T01:35:49.068Z,10.20
2023-01-29T01:38:18.265Z,8.98
2023-01-29T01:40:47.175Z,10.57
2023-01-29T01:43:15.128Z,10.50
2023-01-29T01:45:46.520Z,8.38
2023-01-29T01:48:21.352Z,9.52
2023-01-29T01:50:54.609Z,7.20
2023-01-29T01:53:31.356Z,10.70
2023-01-29T01:56:07.240Z,8.13
2023-01-29T01:58:41.802Z,11.27
2023-01-29T02:01:11.242Z,11.30
2023-01-29T02:04:03.140Z,10.32
2023-01-29T02:06:50.366Z,8.80
2023-01-29T02:09:35.635Z,9.27
2023-01-29T02:12:06.708Z,9.80
2023-01-29T02:14:38.896Z,7.50
2023-01-29T02:17:08.854Z,8.25
2023-01-29T02:19:49.071Z,8.95
2023-01-29T02:22:54.916Z,9.07
2023-01-29T02:26:05.713Z,8.32
2023-01-29T02:28:48.838Z,6.85
2023-01-29T02:31:32.520Z,8.80
2023-01-29T02:34:18.430Z,9.45
2023-01-29T02:36:52.436Z,8.57
2023-01-29T02:39:35.461Z,7.68
2023-01-29T02:42:17.240Z,8.80
2023-01-29T02:44:56.810Z,8.40
2023-01-29T02:47:36.124Z,7.95
2023-01-29T02:50:14.149Z,6.32
2023-01-29T02:52:56.851Z,7.50
2023-01-29T02:55:35.899Z,8.30
2023-01-29T02:58:12.447Z,5.22
2023-01-29T03:00:47.680Z,6.20
2023-01-29T03:03:21.359Z,8.90
2023-01-29T03:06:02.452Z,7.55
2023-01-29T03:08:43.153Z,4.95
2023-01-29T03:11:14.895Z,7.30
2023-01-29T03:13:50.948Z,4.18
2023-01-29T03:16:28.976Z,5.03
2023-01-29T03:19:05.737Z,4.63
2023-01-29T03:21:59.309Z,5.93
2023-01-29T03:24:58.200Z,6.00
2023-01-29T03:27:51.817Z,4.85
2023-01-29T03:30:40.774Z,5.30
2023-01-29T03:33:36.530Z,5.55
2023-01-29T03:36:14.731Z,4.70
2023-01-29T03:38:43.238Z,6.47
2023-01-29T03:41:24.211Z,7.55
2023-01-29T03:44:08.348Z,7.28
2023-01-29T03:46:46.295Z,7.78
2023-01-29T03:49:31.040Z,7.80
2023-01-29T03:52:10.162Z,8.10
2023-01-29T03:54:53.961Z,6.70
2023-01-29T03:57:35.944Z,7.05
2023-01-29T04:00:15.263Z,7.55
2023-01-29T04:03:09.115Z,6.78
2023-01-29T04:05:48.864Z,9.10
2023-01-29T04:08:30.098Z,8.02
2023-01-29T04:11:11.289Z,10.57
2023-01-29T04:13:41.189Z,7.18
2023-01-29T04:16:17.534Z,7.43
2023-01-29T04:18:56.124Z,8.48
2023-01-29T04:21:33.054Z,7.72
2023-01-29T04:24:01.207Z,11.88
2023-01-29T04:26:51.274Z,10.57
2023-01-29T04:29:38.043Z,9.07
2023-01-29T04:32:16.726Z,10.25
2023-01-29T04:35:01.744Z,9.85
2023-01-29T04:37:42.337Z,8.45
2023-01-29T04:40:21.398Z,10.32
2023-01-29T04:43:00.689Z,8.43
2023-01-29T04:45:45.966Z,9.35
2023-01-29T04:48:26.246Z,6.00
2023-01-29T04:51:04.322Z,10.60
2023-01-29T04:53:46.101Z,10.30
2023-01-29T04:56:25.618Z,7.82
2023-01-29T04:59:00.111Z,8.10
2023-01-29T05:01:33.173Z,9.43
2023-01-29T05:04:06.435Z,12.55
2023-01-29T05:06:37.253Z,12.00
2023-01-29T05:09:07.293Z,14.38
2023-01-29T05:11:37.615Z,14.45
2023-01-29T05:14:11.051Z,12.55
2023-01-29T05:16:44.898Z,11.40
2023-01-29T05:19:15.972Z,10.63
2023-01-29T05:21:47.799Z,12.15
2023-01-29T05:24:20.643Z,11.23
2023-01-29T05:27:09.100Z,12.38
2023-01-29T05:29:37.014Z,9.27
2023-01-29T05:32:04.999Z,10.25
2023-01-29T05:34:32.853Z,9.52
2023-01-29T05:37:00.738Z,10.90
2023-01-29T05:39:29.998Z,10.10
2023-01-29T05:41:57.861Z,7.68
2023-01-29T05:44:26.146Z,7.15
2023-01-29T05:46:54.096Z,5.55
2023-01-29T05:49:22.530Z,4.75
2023-01-29T05:51:50.428Z,5.40
2023-01-29T05:54:18.577Z,3.95
2023-01-29T05:56:52.202Z,7.07
2023-01-29T05:59:20.174Z,4.63
2023-01-29T06:01:48.104Z,5.47
2023-01-29T06:04:16.046Z,4.93
2023-01-29T06:06:44.281Z,6.03
2023-01-29T06:09:12.323Z,7.68
2023-01-29T06:11:41.469Z,7.95
2023-01-29T06:14:10.724Z,7.30
2023-01-29T06:16:38.606Z,7.50
2023-01-29T06:19:06.794Z,6.35
2023-01-29T06:21:34.678Z,7.45
2023-01-29T06:24:02.904Z,5.60
2023-01-29T06:26:30.835Z,7.55
2023-01-29T06:28:58.717Z,7.65
2023-01-29T06:31:38.212Z,5.38
2023-01-29T06:34:07.434Z,5.30
2023-01-29T06:36:36.629Z,4.47
2023-01-29T06:39:04.965Z,6.25
2023-01-29T06:41:32.856Z,6.55
2023-01-29T06:44:03.592Z,5.57
2023-01-29T06:46:32.969Z,6.13
2023-01-29T06:49:01.289Z,6.40
2023-01-29T06:51:29.185Z,5.70
2023-01-29T06:53:57.091Z,7.80
2023-01-29T06:56:25.883Z,5.07
2023-01-29T06:58:53.787Z,7.40
2023-01-29T07:01:34.997Z,6.22
2023-01-29T07:04:05.580Z,16.90
2023-01-29T07:06:34.289Z,11.07
2023-01-29T07:09:02.214Z,8.90
2023-01-29T07:11:30.216Z,7.68
2023-01-29T07:13:58.244Z,9.73
2023-01-29T07:16:26.428Z,8.98
2023-01-29T07:18:54.561Z,7.00
2023-01-29T07:21:23.890Z,7.25
2023-01-29T07:23:52.055Z,7.13
2023-01-29T07:26:22.538Z,7.43
2023-01-29T07:28:50.388Z,8.25
2023-01-29T07:31:18.448Z,11.13
2023-01-29T07:33:46.496Z,10.73
2023-01-29T07:36:15.743Z,9.45
2023-01-29T07:38:44.935Z,10.57
2023-01-29T07:41:13.512Z,9.77
2023-01-29T07:43:44.457Z,8.93
2023-01-29T07:46:12.727Z,10.80
2023-01-29T07:48:40.668Z,10.13
2023-01-29T07:51:08.637Z,12.05
2023-01-29T07:53:37.041Z,9.32
2023-01-29T07:56:07.063Z,11.70
2023-01-29T07:58:36.666Z,11.00
2023-01-29T08:01:09.030Z,14.05
2023-01-29T08:03:37.564Z,15.10
2023-01-29T08:06:06.281Z,13.30
2023-01-29T08:08:34.271Z,12.60
2023-01-29T08:11:03.839Z,16.65
2023-01-29T08:13:34.065Z,12.15
2023-01-29T08:16:03.853Z,13.63
2023-01-29T08:18:32.330Z,12.93
2023-01-29T08:21:01.886Z,11.00
2023-01-29T08:23:29.898Z,14.95
2023-01-29T08:25:57.838Z,17.10
2023-01-29T08:28:25.793Z,14.70
2023-01-29T08:30:55.497Z,15.18
2023-01-29T08:33:37.990Z,18.80
2023-01-29T08:36:08.238Z,15.27
2023-01-29T08:38:37.119Z,18.60
2023-01-29T08:41:05.247Z,16.45
2023-01-29T08:43:33.325Z,20.35
2023-01-29T08:46:04.667Z,18.33
2023-01-29T08:48:33.343Z,16.50
2023-01-29T08:51:03.019Z,16.40
2023-01-29T08:53:31.058Z,17.52
2023-01-29T08:55:59.253Z,17.30
2023-01-29T08:58:27.141Z,16.83
2023-01-29T09:00:55.025Z,16.63
2023-01-29T09:03:24.276Z,15.40
2023-01-29T09:05:52.128Z,17.33
2023-01-29T09:08:20.296Z,15.88
2023-01-29T09:10:48.291Z,16.02
2023-01-29T09:13:16.147Z,17.02
2023-01-29T09:15:44.193Z,14.75
2023-01-29T09:18:12.068Z,14.90
2023-01-29T09:20:41.633Z,19.83
2023-01-29T09:23:11.320Z,15.90
2023-01-29T09:25:39.414Z,16.38
2023-01-29T09:28:07.382Z,16.73
2023-01-29T09:30:37.693Z,13.57
2023-01-29T09:33:06.818Z,14.43
2023-01-29T09:35:35.581Z,14.98
2023-01-29T09:38:05.145Z,15.45
2023-01-29T09:40:43.321Z,14.85
2023-01-29T09:43:19.078Z,16.40
2023-01-29T09:45:56.209Z,12.98
2023-01-29T09:48:29.434Z,14.50
2023-01-29T09:51:03.904Z,13.82
2023-01-29T09:53:41.991Z,12.45
2023-01-29T09:56:20.426Z,15.48
2023-01-29T09:58:49.302Z,13.88
2023-01-29T10:01:24.952Z,14.02
2023-01-29T10:04:27.147Z,13.60
2023-01-29T10:07:16.594Z,15.30
2023-01-29T10:10:12.369Z,13.43
2023-01-29T10:12:59.083Z,15.13
2023-01-29T10:15:44.006Z,15.48
2023-01-29T10:18:45.223Z,13.63
2023-01-29T10:21:33.337Z,14.07
2023-01-29T10:24:19.624Z,14.57
2023-01-29T10:26:49.778Z,13.60
2023-01-29T10:29:21.958Z,13.73
2023-01-29T10:31:57.989Z,15.55
2023-01-29T10:34:34.261Z,12.57
2023-01-29T10:37:15.542Z,14.53
2023-01-29T10:39:43.572Z,12.97
2023-01-29T10:42:29.652Z,16.73
2023-01-29T10:45:29.306Z,13.40
2023-01-29T10:48:30.121Z,12.38
2023-01-29T10:51:14.451Z,15.87
2023-01-29T10:53:57.553Z,15.37
2023-01-29T10:56:52.731Z,13.50
2023-01-29T10:59:40.622Z,13.60
2023-01-29T11:02:19.496Z,14.40
2023-01-29T11:04:47.886Z,14.13
2023-01-29T11:07:20.769Z,14.83
2023-01-29T11:09:58.561Z,15.33
2023-01-29T11:12:33.329Z,14.27
2023-01-29T11:15:08.168Z,11.93
2023-01-29T11:17:36.434Z,12.93
2023-01-29T11:20:27.886Z,13.43
2023-01-29T11:22:56.608Z,13.63
2023-01-29T11:25:24.994Z,11.83
2023-01-29T11:27:56.649Z,13.33
2023-01-29T11:30:30.922Z,13.20
2023-01-29T11:33:09.820Z,13.43
2023-01-29T11:35:38.356Z,12.70
2023-01-29T11:38:22.212Z,12.83
2023-01-29T11:40:51.085Z,12.50
2023-01-29T11:43:30.768Z,12.33
2023-01-29T11:46:05.218Z,11.47
2023-01-29T11:48:44.689Z,12.60
2023-01-29T11:51:22.616Z,11.13
2023-01-29T11:53:55.848Z,11.80
2023-01-29T11:56:30.085Z,10.10
2023-01-29T11:58:59.871Z,10.83
2023-01-29T12:01:37.242Z,11.43
2023-01-29T12:04:18.557Z,11.70
2023-01-29T12:06:51.908Z,10.33
2023-01-29T12:09:23.634Z,10.07
2023-01-29T12:11:52.611Z,11.57
2023-01-29T12:14:29.950Z,11.73
2023-01-29T12:17:06.269Z,10.63
2023-01-29T12:19:45.205Z,11.67
2023-01-29T12:22:21.975Z,12.43
2023-01-29T12:24:55.975Z,11.27
2023-01-29T12:27:35.124Z,12.67
2023-01-29T12:30:13.966Z,10.60
2023-01-29T12:32:55.517Z,12.10
2023-01-29T12:35:29.509Z,12.60
2023-01-29T12:38:04.251Z,14.23
2023-01-29T12:40:41.181Z,10.57
2023-01-29T12:43:17.716Z,11.70
2023-01-29T12:45:54.209Z,11.27
2023-01-29T12:48:31.146Z,10.00
2023-01-29T12:51:10.326Z,11.43
2023-01-29T12:53:43.958Z,9.87
2023-01-29T12:56:24.340Z,11.37
2023-01-29T12:58:57.120Z,11.17
2023-01-29T13:01:34.155Z,10.40
2023-01-29T13:04:12.649Z,11.40
2023-01-29T13:06:47.805Z,10.50
2023-01-29T13:09:22.084Z,12.10
2023-01-29T13:11:56.636Z,10.60
2023-01-29T13:14:32.829Z,11.97
2023-01-29T13:17:13.881Z,14.70
2023-01-29T13:19:50.877Z,11.30
2023-01-29T13:22:26.112Z,10.23
2023-01-29T13:25:04.791Z,10.57
2023-01-29T13:27:37.690Z,11.40
2023-01-29T13:30:07.305Z,12.43
2023-01-29T13:32:37.916Z,11.70
2023-01-29T13:35:17.193Z,11.70
2023-01-29T13:37:51.809Z,12.83
2023-01-29T13:40:26.489Z,11.83
2023-01-29T13:42:59.885Z,12.07
2023-01-29T13:45:36.443Z,10.27
2023-01-29T13:48:21.023Z,9.93
2023-01-29T13:50:52.602Z,13.00
2023-01-29T13:53:25.388Z,13.33
2023-01-29T13:55:53.351Z,12.27
2023-01-29T13:58:56.910Z,11.17
2023-01-29T14:02:04.711Z,10.27
2023-01-29T14:04:34.173Z,10.67
2023-01-29T14:07:23.862Z,9.87
2023-01-29T14:10:20.739Z,9.63
2023-01-29T14:12:52.972Z,11.33
2023-01-29T14:15:25.481Z,10.67
2023-01-29T14:18:26.198Z,11.20
2023-01-29T14:21:00.331Z,9.27
2023-01-29T14:23:46.736Z,14.07
2023-01-29T14:26:28.781Z,10.73
2023-01-29T14:29:04.312Z,9.03
2023-01-29T14:31:41.385Z,10.03
2023-01-29T14:34:21.621Z,11.07
2023-01-29T14:36:55.539Z,10.43
2023-01-29T14:39:37.695Z,10.23
2023-01-29T14:42:23.628Z,9.93
2023-01-29T14:45:22.785Z,9.88
2023-01-29T14:48:20.840Z,11.13
2023-01-29T14:51:09.690Z,9.43
2023-01-29T14:53:56.067Z,8.53
2023-01-29T14:56:33.745Z,9.13
2023-01-29T14:59:20.304Z,10.35
2023-01-29T15:01:53.907Z,9.75
2023-01-29T15:04:27.350Z,9.75
2023-01-29T15:07:02.017Z,9.63
2023-01-29T15:09:41.925Z,9.63
2023-01-29T15:12:24.213Z,10.80
2023-01-29T15:15:06.691Z,9.23
2023-01-29T15:17:43.853Z,10.77
2023-01-29T15:20:31.632Z,9.85
2023-01-29T15:23:03.049Z,9.52
2023-01-29T15:25:37.616Z,8.43
2023-01-29T15:28:10.174Z,11.57
2023-01-29T15:30:51.100Z,9.33
2023-01-29T15:33:19.405Z,9.77
2023-01-29T15:35:51.614Z,9.00
2023-01-29T15:38:26.269Z,9.00
2023-01-29T15:40:56.476Z,7.80
2023-01-29T15:43:27.147Z,8.95
2023-01-29T15:46:00.649Z,8.57
2023-01-29T15:48:36.111Z,8.70
2023-01-29T15:51:08.247Z,9.85
2023-01-29T15:53:49.466Z,10.02
2023-01-29T15:56:22.277Z,9.18
2023-01-29T15:58:53.010Z,8.90
2023-01-29T16:01:23.256Z,9.27
2023-01-29T16:03:51.787Z,8.77
2023-01-29T16:06:22.018Z,7.60
2023-01-29T16:08:54.384Z,9.40
2023-01-29T16:11:22.909Z,8.60
2023-01-29T16:13:52.691Z,7.05
2023-01-29T16:16:26.608Z,8.52
2023-01-29T16:19:01.116Z,8.90
2023-01-29T16:21:35.004Z,8.65
2023-01-29T16:24:09.553Z,9.23
2023-01-29T16:26:44.136Z,8.35
2023-01-29T16:29:15.630Z,8.43
2023-01-29T16:31:47.983Z,8.95
2023-01-29T16:34:25.418Z,11.52
2023-01-29T16:36:55.194Z,8.95
2023-01-29T16:39:28.884Z,9.02
2023-01-29T16:42:24.087Z,9.02
2023-01-29T16:44:57.891Z,7.53
2023-01-29T16:47:33.077Z,9.60
2023-01-29T16:50:04.518Z,10.15
2023-01-29T16:52:35.329Z,10.93
2023-01-29T16:55:21.474Z,9.90
2023-01-29T16:57:54.718Z,12.23
2023-01-29T17:00:27.767Z,11.18
2023-01-29T17:03:04.286Z,10.70
2023-01-29T17:05:38.362Z,9.95
2023-01-29T17:08:09.155Z,10.23
2023-01-29T17:10:37.481Z,11.45
2023-01-29T17:13:10.181Z,8.88
2023-01-29T17:15:47.055Z,13.05
2023-01-29T17:18:21.439Z,10.23
2023-01-29T17:20:50.579Z,8.23
2023-01-29T17:23:18.667Z,9.88
2023-01-29T17:25:47.596Z,10.10
2023-01-29T17:28:18.251Z,9.68
2023-01-29T17:30:56.701Z,11.50
2023-01-29T17:33:29.682Z,11.00
2023-01-29T17:35:57.687Z,10.75
2023-01-29T17:38:27.090Z,8.13
2023-01-29T17:40:59.590Z,10.75
2023-01-29T17:43:27.563Z,8.95
2023-01-29T17:45:55.669Z,8.65
2023-01-29T18:01:24.952Z,10.57
2023-01-29T18:04:13.831Z,9.10
2023-01-29T18:07:02.202Z,8.77
2023-01-29T18:09:50.672Z,9.38
2023-01-29T18:12:39.236Z,9.68
2023-01-29T18:15:09.429Z,9.30
2023-01-29T18:17:39.791Z,9.52
2023-01-29T18:20:20.990Z,11.02
2023-01-29T18:22:49.173Z,9.13
2023-01-29T18:25:17.695Z,8.82
2023-01-29T18:27:46.308Z,10.13
2023-01-29T18:30:15.631Z,8.75
2023-01-29T18:32:47.102Z,9.65
2023-01-29T18:35:16.142Z,8.18
2023-01-29T18:37:44.276Z,10.00
2023-01-29T18:40:16.983Z,9.30
2023-01-29T18:42:45.480Z,9.13
2023-01-29T18:45:15.758Z,7.85
2023-01-29T18:47:45.912Z,10.25
2023-01-29T18:50:13.814Z,10.85
2023-01-29T18:52:41.786Z,10.55
2023-01-29T18:55:10.634Z,9.95
2023-01-29T18:58:33.484Z,9.73
2023-01-29T19:00:28.249Z,9.00
2023-01-29T19:02:57.438Z,12.07
2023-01-29T19:05:25.858Z,9.48
2023-01-29T19:07:54.117Z,13.60
2023-01-29T19:10:22.607Z,12.88
2023-01-29T19:12:50.495Z,13.35
2023-01-29T19:15:20.549Z,12.32
2023-01-29T19:17:48.434Z,12.70
2023-01-29T19:20:19.099Z,10.32
2023-01-29T19:22:47.531Z,10.38
2023-01-29T19:25:19.961Z,12.40
2023-01-29T19:27:48.949Z,10.05
2023-01-29T19:30:17.682Z,12.98
2023-01-29T19:32:45.984Z,12.27
2023-01-29T19:35:13.932Z,15.35
2023-01-29T19:37:43.156Z,11.52
2023-01-29T19:40:12.336Z,10.50
2023-01-29T19:42:40.907Z,10.65
2023-01-29T19:45:10.240Z,12.27
2023-01-29T19:47:40.697Z,12.40
2023-01-29T19:50:11.133Z,10.70
2023-01-29T19:52:50.659Z,10.50
2023-01-29T19:55:22.267Z,12.88
2023-01-29T19:57:52.894Z,13.13
2023-01-29T20:00:22.400Z,11.73
2023-01-29T20:02:50.224Z,11.90
2023-01-29T20:05:18.805Z,12.38
2023-01-29T20:07:47.160Z,10.75
2023-01-29T20:10:18.042Z,15.90
2023-01-29T20:12:47.632Z,10.93
2023-01-29T20:15:16.602Z,12.82
2023-01-29T20:17:45.610Z,11.43
2023-01-29T20:20:14.684Z,13.27
2023-01-29T20:22:42.748Z,15.18
2023-01-29T20:25:13.499Z,13.13
2023-01-29T20:27:41.947Z,13.27
2023-01-29T20:30:13.070Z,13.38
2023-01-29T20:32:40.995Z,15.50
2023-01-29T20:35:10.618Z,20.92
2023-01-29T20:37:38.510Z,14.88
2023-01-29T20:40:07.696Z,19.20
2023-01-29T20:42:35.548Z,17.08
2023-01-29T20:45:03.723Z,16.98
2023-01-29T20:47:33.385Z,17.35
2023-01-29T20:50:08.279Z,18.10
2023-01-29T20:52:36.370Z,18.45
2023-01-29T20:55:07.347Z,15.52
2023-01-29T20:57:36.259Z,16.80
2023-01-29T21:00:04.901Z,17.00
2023-01-29T21:02:35.332Z,17.60
